createdAt,value
2018-08-20T00:02:38.025Z,78.30
2018-08-20T00:05:43.180Z,78.50
2018-08-20T00:08:46.397Z,78.60
2018-08-20T00:11:49.763Z,78.60
2018-08-20T00:14:53.358Z,79.00
2018-08-20T00:17:56.416Z,79.20
2018-08-20T00:20:59.529Z,79.50
2018-08-20T00:24:02.600Z,79.80
2018-08-20T00:27:05.665Z,79.80
2018-08-20T00:30:14.573Z,80.10
2018-08-20T00:33:17.625Z,80.50
2018-08-20T00:36:20.709Z,80.70
2018-08-20T00:39:23.791Z,81.00
2018-08-20T00:42:26.858Z,81.50
2018-08-20T00:45:29.945Z,82.00
2018-08-20T00:48:32.994Z,81.90
2018-08-20T00:51:36.053Z,82.30
2018-08-20T00:54:39.145Z,82.40
2018-08-20T00:57:42.210Z,82.80
2018-08-20T01:00:45.261Z,83.00
2018-08-20T01:03:48.334Z,83.90
2018-08-20T01:06:51.389Z,83.50
2018-08-20T01:09:54.942Z,83.50
2018-08-20T01:12:58.019Z,83.80
2018-08-20T01:16:01.094Z,84.20
2018-08-20T01:19:04.155Z,84.30
2018-08-20T01:22:07.289Z,85.10
2018-08-20T01:25:10.360Z,85.30
2018-08-20T01:28:13.409Z,85.30
2018-08-20T01:31:16.486Z,85.20
2018-08-20T01:34:19.553Z,85.30
2018-08-20T01:37:22.637Z,85.20
2018-08-20T01:40:25.865Z,85.40
2018-08-20T01:43:28.939Z,85.50
2018-08-20T01:46:32.021Z,85.70
2018-08-20T01:49:35.073Z,85.90
2018-08-20T01:52:38.137Z,86.00
2018-08-20T01:55:41.221Z,86.20
2018-08-20T01:58:44.289Z,86.30
2018-08-20T02:01:47.385Z,86.70
2018-08-20T02:04:50.458Z,86.90
2018-08-20T02:07:53.524Z,86.90
2018-08-20T02:10:56.598Z,87.30
2018-08-20T02:13:59.681Z,87.50
2018-08-20T02:17:02.756Z,87.70
2018-08-20T02:20:06.014Z,87.90
2018-08-20T02:23:09.077Z,88.20
2018-08-20T02:26:12.145Z,88.40
2018-08-20T02:29:15.253Z,88.70
2018-08-20T02:32:18.325Z,89.00
2018-08-20T02:35:21.397Z,88.70
2018-08-20T02:38:24.489Z,89.20
2018-08-20T02:41:27.626Z,89.40
2018-08-20T02:44:30.694Z,90.10
2018-08-20T02:47:33.848Z,90.20
2018-08-20T02:50:37.258Z,90.30
2018-08-20T02:53:40.574Z,90.40
2018-08-20T02:56:43.994Z,90.60
2018-08-20T02:59:47.238Z,90.80
2018-08-20T03:02:51.331Z,91.10
2018-08-20T03:05:54.564Z,90.80
2018-08-20T03:08:57.797Z,90.80
2018-08-20T03:12:01.108Z,90.80
2018-08-20T03:15:05.201Z,90.90
2018-08-20T03:18:08.590Z,90.90
2018-08-20T03:21:12.097Z,90.80
2018-08-20T03:24:15.525Z,90.90
2018-08-20T03:27:18.856Z,91.00
2018-08-20T03:30:22.190Z,91.20
2018-08-20T03:33:25.522Z,91.20
2018-08-20T03:36:28.778Z,91.10
2018-08-20T03:39:32.177Z,91.00
2018-08-20T03:42:35.494Z,91.00
2018-08-20T03:45:38.770Z,91.00
2018-08-20T03:48:42.037Z,91.00
2018-08-20T03:51:45.425Z,90.90
2018-08-20T03:54:48.734Z,90.90
2018-08-20T03:57:52.170Z,90.90
2018-08-20T04:00:55.617Z,90.90
2018-08-20T04:03:58.914Z,90.80
2018-08-20T04:07:04.324Z,90.70
2018-08-20T04:10:07.564Z,90.80
2018-08-20T04:13:10.821Z,90.80
2018-08-20T04:16:14.186Z,90.70
2018-08-20T04:19:17.526Z,90.80
2018-08-20T04:22:20.859Z,90.60
2018-08-20T04:25:24.114Z,90.60
2018-08-20T04:28:27.490Z,90.50
2018-08-20T04:31:31.006Z,90.30
2018-08-20T04:34:34.311Z,90.30
2018-08-20T04:37:37.629Z,90.30
2018-08-20T04:40:40.834Z,90.30
2018-08-20T04:43:44.102Z,90.40
2018-08-20T04:46:47.313Z,90.50
2018-08-20T04:49:50.843Z,90.60
2018-08-20T04:52:54.149Z,90.70
2018-08-20T04:55:57.440Z,90.70
2018-08-20T04:59:00.747Z,90.80
2018-08-20T05:02:04.001Z,90.80
2018-08-20T05:05:07.545Z,90.80
2018-08-20T05:08:10.846Z,90.60
2018-08-20T05:11:14.375Z,90.60
2018-08-20T05:14:17.698Z,90.50
2018-08-20T05:17:20.903Z,90.40
2018-08-20T05:20:24.242Z,90.30
2018-08-20T05:23:27.478Z,90.30
2018-08-20T05:26:30.836Z,90.30
2018-08-20T05:29:33.907Z,90.10
2018-08-20T05:32:37.103Z,90.10
2018-08-20T05:35:40.173Z,90.20
2018-08-20T05:38:43.276Z,90.10
2018-08-20T05:41:46.367Z,90.10
2018-08-20T05:44:49.471Z,89.90
2018-08-20T05:47:52.529Z,89.80
2018-08-20T05:50:55.628Z,89.90
2018-08-20T05:53:58.697Z,89.40
2018-08-20T05:57:01.776Z,89.40
2018-08-20T06:00:09.082Z,89.00
2018-08-20T06:03:12.160Z,88.50
2018-08-20T06:06:15.277Z,87.70
2018-08-20T06:09:18.373Z,87.50
2018-08-20T06:12:21.445Z,87.70
2018-08-20T06:15:24.628Z,87.10
2018-08-20T06:18:27.632Z,86.30
2018-08-20T06:21:31.189Z,85.70
2018-08-20T06:24:34.278Z,84.80
2018-08-20T06:27:37.388Z,84.20
2018-08-20T06:30:40.453Z,84.20
2018-08-20T06:33:43.557Z,84.10
2018-08-20T06:36:46.657Z,84.10
2018-08-20T06:39:49.750Z,83.90
2018-08-20T06:42:52.801Z,84.10
2018-08-20T06:45:55.905Z,84.10
2018-08-20T06:48:58.992Z,84.70
2018-08-20T06:52:02.065Z,85.10
2018-08-20T06:55:05.141Z,85.50
2018-08-20T06:58:08.256Z,85.50
2018-08-20T07:01:11.350Z,85.70
2018-08-20T07:04:14.485Z,86.20
2018-08-20T07:07:17.566Z,86.60
2018-08-20T07:10:20.633Z,87.10
2018-08-20T07:13:28.524Z,87.20
2018-08-20T07:16:31.589Z,87.30
2018-08-20T07:19:34.681Z,87.10
2018-08-20T07:22:37.781Z,86.50
2018-08-20T07:25:40.862Z,85.80
2018-08-20T07:28:43.921Z,85.40
2018-08-20T07:31:46.982Z,85.40
2018-08-20T07:34:50.037Z,85.80
2018-08-20T07:37:53.118Z,85.50
2018-08-20T07:40:56.202Z,85.90
2018-08-20T07:43:59.273Z,86.20
2018-08-20T07:47:02.365Z,86.00
2018-08-20T07:50:05.519Z,85.90
2018-08-20T07:53:08.622Z,85.90
2018-08-20T07:56:11.745Z,85.80
2018-08-20T07:59:15.437Z,86.10
2018-08-20T08:02:18.502Z,86.40
2018-08-20T08:05:21.569Z,86.40
2018-08-20T08:08:24.654Z,86.50
2018-08-20T08:11:28.006Z,86.80
2018-08-20T08:14:37.065Z,87.20
2018-08-20T08:17:40.958Z,87.20
2018-08-20T08:20:44.184Z,86.80
2018-08-20T08:23:47.848Z,86.70
2018-08-20T08:26:51.158Z,86.20
2018-08-20T08:29:54.454Z,85.60
2018-08-20T08:32:57.681Z,85.70
2018-08-20T08:36:02.063Z,84.40
2018-08-20T08:39:08.478Z,84.40
2018-08-20T08:42:11.934Z,84.70
2018-08-20T08:45:17.442Z,84.90
2018-08-20T08:48:20.672Z,85.50
2018-08-20T08:51:24.054Z,86.00
2018-08-20T08:54:27.425Z,87.40
2018-08-20T08:57:30.726Z,88.80
2018-08-20T09:00:34.043Z,89.70
2018-08-20T09:03:37.186Z,88.90
2018-08-20T09:06:40.467Z,88.50
2018-08-20T09:09:43.766Z,88.20
2018-08-20T09:12:46.986Z,87.90
2018-08-20T09:15:50.507Z,84.90
2018-08-20T09:19:05.923Z,83.50
2018-08-20T09:22:09.222Z,80.00
2018-08-20T09:25:13.447Z,77.00
2018-08-20T09:28:16.740Z,74.80
2018-08-20T09:31:19.965Z,73.50
2018-08-20T09:34:23.371Z,72.60
2018-08-20T09:37:26.581Z,69.90
2018-08-20T09:40:30.027Z,70.00
2018-08-20T09:43:33.266Z,69.70
2018-08-20T09:46:36.460Z,70.30
2018-08-20T09:49:40.069Z,70.70
2018-08-20T09:52:43.693Z,71.30
2018-08-20T09:55:46.965Z,72.20
2018-08-20T09:58:50.515Z,73.10
2018-08-20T10:01:53.840Z,73.70
2018-08-20T10:04:57.854Z,74.80
2018-08-20T10:08:01.314Z,74.30
2018-08-20T10:11:04.548Z,74.70
2018-08-20T10:14:07.957Z,75.80
2018-08-20T10:17:11.266Z,76.50
2018-08-20T10:20:15.400Z,77.10
2018-08-20T10:23:19.185Z,77.00
2018-08-20T10:26:22.454Z,75.80
2018-08-20T10:29:25.822Z,75.60
2018-08-20T10:32:29.307Z,74.90
2018-08-20T10:35:36.194Z,73.90
2018-08-20T10:38:39.587Z,74.50
2018-08-20T10:41:42.962Z,75.00
2018-08-20T10:44:51.668Z,76.10
2018-08-20T10:47:54.837Z,76.50
2018-08-20T10:50:58.029Z,77.10
2018-08-20T10:54:01.226Z,77.30
2018-08-20T10:57:04.710Z,76.50
2018-08-20T11:00:08.369Z,77.40
2018-08-20T11:03:12.655Z,78.20
2018-08-20T11:06:16.982Z,79.00
2018-08-20T11:09:20.304Z,80.10
2018-08-20T11:12:23.582Z,81.10
2018-08-20T11:15:26.859Z,81.20
2018-08-20T11:18:30.445Z,81.10
2018-08-20T11:21:33.703Z,80.50
2018-08-20T11:24:36.958Z,80.00
2018-08-20T11:27:40.356Z,79.30
2018-08-20T11:30:43.596Z,79.30
2018-08-20T11:33:46.885Z,80.10
2018-08-20T11:36:50.164Z,80.20
2018-08-20T11:39:53.470Z,80.40
2018-08-20T11:42:56.789Z,80.40
2018-08-20T11:46:20.530Z,80.60
2018-08-20T11:49:23.908Z,80.40
2018-08-20T11:52:27.222Z,79.80
2018-08-20T11:55:30.454Z,79.70
2018-08-20T11:58:33.819Z,79.70
2018-08-20T12:01:37.144Z,79.40
2018-08-20T12:04:40.345Z,78.60
2018-08-20T12:07:43.968Z,77.30
2018-08-20T12:10:47.207Z,76.80
2018-08-20T12:13:51.059Z,77.00
2018-08-20T12:16:54.358Z,77.10
2018-08-20T12:19:57.680Z,76.70
2018-08-20T12:23:01.092Z,76.20
2018-08-20T12:26:04.354Z,75.00
2018-08-20T12:29:07.630Z,75.10
2018-08-20T12:32:11.014Z,74.80
2018-08-20T12:35:14.379Z,74.20
2018-08-20T12:38:17.553Z,73.60
2018-08-20T12:41:20.773Z,73.50
2018-08-20T12:44:24.035Z,72.90
2018-08-20T12:47:27.288Z,73.00
2018-08-20T12:50:30.560Z,73.30
2018-08-20T12:53:33.910Z,73.40
2018-08-20T12:56:37.129Z,73.60
2018-08-20T12:59:40.310Z,74.00
2018-08-20T13:02:43.678Z,74.20
2018-08-20T13:05:47.051Z,74.90
2018-08-20T13:08:50.361Z,75.00
2018-08-20T13:11:53.602Z,75.40
2018-08-20T13:14:56.931Z,76.00
2018-08-20T13:18:00.406Z,75.90
2018-08-20T13:21:03.723Z,76.30
2018-08-20T13:24:07.207Z,76.80
2018-08-20T13:27:10.555Z,77.00
2018-08-20T13:30:13.906Z,77.70
2018-08-20T13:33:17.302Z,78.70
2018-08-20T13:36:20.561Z,78.60
2018-08-20T13:39:23.803Z,77.40
2018-08-20T13:42:29.399Z,77.60
2018-08-20T13:45:32.696Z,78.50
2018-08-20T13:48:36.035Z,77.60
2018-08-20T13:51:39.341Z,77.70
2018-08-20T13:54:42.608Z,78.20
2018-08-20T13:57:46.980Z,78.10
2018-08-20T14:00:50.241Z,78.80
2018-08-20T14:03:54.903Z,79.10
2018-08-20T14:06:58.806Z,79.30
2018-08-20T14:10:02.776Z,80.10
2018-08-20T14:13:06.315Z,80.70
2018-08-20T14:16:10.480Z,81.50
2018-08-20T14:19:13.866Z,81.80
2018-08-20T14:22:17.153Z,82.00
2018-08-20T14:25:20.455Z,82.20
2018-08-20T14:28:23.738Z,82.70
2018-08-20T14:31:27.094Z,83.70
2018-08-20T14:34:30.523Z,83.80
2018-08-20T14:37:33.786Z,84.00
2018-08-20T14:40:37.115Z,84.20
2018-08-20T14:43:40.439Z,84.30
2018-08-20T14:46:43.764Z,84.50
2018-08-20T14:49:47.055Z,84.90
2018-08-20T14:52:50.377Z,85.30
2018-08-20T14:55:53.598Z,85.40
2018-08-20T14:58:56.831Z,85.40
2018-08-20T15:02:00.272Z,85.20
2018-08-20T15:05:03.725Z,84.90
2018-08-20T15:08:06.927Z,84.30
2018-08-20T15:11:10.272Z,84.40
2018-08-20T15:14:13.627Z,84.10
2018-08-20T15:17:16.931Z,83.60
2018-08-20T15:20:20.131Z,83.60
2018-08-20T15:23:23.502Z,83.50
2018-08-20T15:26:26.920Z,83.50
2018-08-20T15:29:30.143Z,83.60
2018-08-20T15:32:33.441Z,82.90
2018-08-20T15:35:36.744Z,82.80
2018-08-20T15:38:40.043Z,83.10
2018-08-20T15:41:43.315Z,83.40
2018-08-20T15:44:46.677Z,83.50
2018-08-20T15:47:49.918Z,83.60
2018-08-20T15:50:53.157Z,84.00
2018-08-20T15:53:56.462Z,84.10
2018-08-20T15:56:59.702Z,84.40
2018-08-20T16:00:03.004Z,84.60
2018-08-20T16:03:06.594Z,84.50
2018-08-20T16:06:09.866Z,85.50
2018-08-20T16:09:13.230Z,84.80
2018-08-20T16:12:16.622Z,85.00
2018-08-20T16:15:19.953Z,84.80
2018-08-20T16:18:23.290Z,84.90
2018-08-20T16:21:26.807Z,84.70
2018-08-20T16:24:30.159Z,85.20
2018-08-20T16:27:33.470Z,84.50
2018-08-20T16:30:36.710Z,84.40
2018-08-20T16:33:50.116Z,84.30
2018-08-20T16:36:53.494Z,84.40
2018-08-20T16:39:56.767Z,84.90
2018-08-20T16:43:00.054Z,85.20
2018-08-20T16:46:03.362Z,85.40
2018-08-20T16:49:07.858Z,85.80
2018-08-20T16:52:11.214Z,85.80
2018-08-20T16:55:14.518Z,85.70
2018-08-20T16:58:17.768Z,85.40
2018-08-20T17:01:21.019Z,85.60
2018-08-20T17:04:31.521Z,86.00
2018-08-20T17:07:34.847Z,86.20
2018-08-20T17:10:38.215Z,86.30
2018-08-20T17:13:41.627Z,86.40
2018-08-20T17:16:44.838Z,86.70
2018-08-20T17:19:54.906Z,87.10
2018-08-20T17:23:10.146Z,87.00
2018-08-20T17:26:13.543Z,87.10
2018-08-20T17:29:16.958Z,87.20
2018-08-20T17:32:20.302Z,87.30
2018-08-20T17:35:23.531Z,87.50
2018-08-20T17:38:27.046Z,87.80
2018-08-20T17:41:30.331Z,88.10
2018-08-20T17:44:33.773Z,88.50
2018-08-20T17:47:38.391Z,88.60
2018-08-20T17:50:42.368Z,89.20
2018-08-20T17:53:52.734Z,89.60
2018-08-20T17:56:56.007Z,89.80
2018-08-20T18:00:21.947Z,90.00
2018-08-20T18:03:48.239Z,90.20
2018-08-20T18:06:54.114Z,90.30
2018-08-20T18:09:57.391Z,90.40
2018-08-20T18:13:00.594Z,90.60
2018-08-20T18:16:05.710Z,91.00
2018-08-20T18:19:09.450Z,91.30
2018-08-20T18:22:12.694Z,92.50
2018-08-20T18:25:15.942Z,92.00
2018-08-20T18:28:19.302Z,92.00
2018-08-20T18:31:24.878Z,92.10
2018-08-20T18:34:28.138Z,92.10
2018-08-20T18:37:36.158Z,92.20
2018-08-20T18:40:39.601Z,92.20
2018-08-20T18:43:43.828Z,92.20
2018-08-20T18:46:47.063Z,92.20
2018-08-20T18:53:28.463Z,92.20
2018-08-20T18:56:31.790Z,92.30
2018-08-20T18:59:36.494Z,92.20
2018-08-20T19:02:42.314Z,92.20
2018-08-20T19:05:49.835Z,92.30
2018-08-20T19:08:53.166Z,92.40
2018-08-20T19:11:56.500Z,92.40
2018-08-20T19:15:00.211Z,92.60
2018-08-20T19:18:03.499Z,92.50
2018-08-20T19:21:12.923Z,92.50
2018-08-20T19:24:16.156Z,92.60
2018-08-20T19:27:19.469Z,92.60
2018-08-20T19:30:25.023Z,92.70
2018-08-20T19:33:31.190Z,92.80
2018-08-20T19:36:34.466Z,93.00
2018-08-20T19:39:37.789Z,93.00
2018-08-20T19:42:41.081Z,93.00
2018-08-20T19:45:45.430Z,93.00
2018-08-20T19:48:49.310Z,93.10
2018-08-20T19:51:52.598Z,93.20
2018-08-20T19:55:01.286Z,93.30
2018-08-20T19:58:04.643Z,93.30
2018-08-20T20:01:10.777Z,93.30
2018-08-20T20:04:16.249Z,93.40
2018-08-20T20:07:19.503Z,93.60
2018-08-20T20:10:22.827Z,93.70
2018-08-20T20:13:37.744Z,93.80
2018-08-20T20:16:46.385Z,94.20
2018-08-20T20:19:49.695Z,93.90
2018-08-20T20:22:52.972Z,93.90
2018-08-20T20:25:56.215Z,94.10
2018-08-20T20:28:59.517Z,94.00
2018-08-20T20:32:02.742Z,94.40
2018-08-20T20:35:07.763Z,94.10
2018-08-20T20:38:11.064Z,94.10
2018-08-20T20:41:14.421Z,94.10
2018-08-20T20:44:17.850Z,94.10
2018-08-20T20:47:21.044Z,94.10
2018-08-20T20:50:24.603Z,94.10
2018-08-20T20:53:27.899Z,94.10
2018-08-20T20:56:31.193Z,94.00
2018-08-20T20:59:34.483Z,94.20
2018-08-20T21:02:44.490Z,94.30
2018-08-20T21:05:47.798Z,94.40
2018-08-20T21:08:51.767Z,94.50
2018-08-20T21:11:55.058Z,94.50
2018-08-20T21:14:58.311Z,94.60
2018-08-20T21:18:09.263Z,94.50
2018-08-20T21:21:12.940Z,94.60
2018-08-20T21:24:16.239Z,94.60
2018-08-20T21:27:24.618Z,94.70
2018-08-20T21:30:32.491Z,95.00
2018-08-20T21:33:35.742Z,94.70
2018-08-20T21:36:39.034Z,94.80
2018-08-20T21:39:42.310Z,94.80
2018-08-20T21:42:45.710Z,94.80
2018-08-20T21:45:48.982Z,94.90
2018-08-20T21:48:52.425Z,94.90
2018-08-20T21:51:57.056Z,95.00
2018-08-20T21:55:00.267Z,95.00
2018-08-20T21:58:03.908Z,95.00
2018-08-20T22:01:08.293Z,95.00
2018-08-20T22:04:16.758Z,95.00
2018-08-20T22:07:20.059Z,95.00
2018-08-20T22:10:23.741Z,95.00
2018-08-20T22:13:27.095Z,95.10
2018-08-20T22:16:30.480Z,95.00
2018-08-20T22:19:33.806Z,95.20
2018-08-20T22:22:37.166Z,95.10
2018-08-20T22:25:40.489Z,95.20
2018-08-20T22:28:43.965Z,95.30
2018-08-20T22:31:52.713Z,95.30
2018-08-20T22:34:56.015Z,95.50
2018-08-20T22:37:59.334Z,95.40
2018-08-20T22:41:02.611Z,95.40
2018-08-20T22:44:05.902Z,95.50
2018-08-20T22:47:09.237Z,95.50
2018-08-20T22:50:12.486Z,95.60
2018-08-20T22:53:16.434Z,95.70
2018-08-20T22:56:24.073Z,95.80
2018-08-20T22:59:28.156Z,96.00
2018-08-20T23:02:31.487Z,96.10
2018-08-20T23:05:34.809Z,96.30
2018-08-20T23:08:38.138Z,96.30
2018-08-20T23:11:42.430Z,96.30
2018-08-20T23:14:45.640Z,96.50
2018-08-20T23:17:48.860Z,96.50
2018-08-20T23:20:52.156Z,96.70
2018-08-20T23:23:55.500Z,96.80
2018-08-20T23:26:58.796Z,96.90
2018-08-20T23:30:03.119Z,96.90
2018-08-20T23:33:07.115Z,97.00
2018-08-20T23:36:10.374Z,96.90
2018-08-20T23:39:14.797Z,97.00
2018-08-20T23:42:18.135Z,97.10
2018-08-20T23:45:40.038Z,97.00
2018-08-20T23:48:43.415Z,97.00
2018-08-20T23:51:46.742Z,97.20
2018-08-20T23:54:50.001Z,97.50
2018-08-20T23:57:53.245Z,97.30
